Time;durP1;ratioP1;P1;durP2;ratioP2;P2;SDS_P1;SDS_P2;PMS_P1;PMS_P2;Temp;Humidity;BMP_temperature;BMP_pressure;BME280_temperature;BME280_humidity;BME280_pressure;Samples;Min_cycle;Max_cycle;Signal;HPM_P1;HPM_P2
2021/07/26 00:01:09;;;;;;;;;;;20.90;66.70;;;;;;485026;242;1734;-47
2021/07/26 00:03:10;;;;;;;;;;;20.90;66.70;;;;;;485001;245;1165;-46
2021/07/26 00:05:11;;;;;;;;;;;20.90;66.80;;;;;;485068;245;2204;-46
2021/07/26 00:07:13;;;;;;;;;;;20.90;66.70;;;;;;484937;245;1249;-47
2021/07/26 00:09:14;;;;;;;;;;;20.90;66.70;;;;;;485080;245;1038;-47
2021/07/26 00:11:15;;;;;;;;;;;20.90;66.70;;;;;;484589;246;1175;-47
2021/07/26 00:13:17;;;;;;;;;;;20.90;66.70;;;;;;485084;245;1124;-47
2021/07/26 00:15:18;;;;;;;;;;;20.90;66.70;;;;;;485086;245;1054;-47
2021/07/26 00:17:19;;;;;;;;;;;20.90;66.70;;;;;;484832;245;1225;-47
2021/07/26 00:19:21;;;;;;;;;;;20.90;66.60;;;;;;485076;245;1254;-47
2021/07/26 00:21:22;;;;;;;;;;;20.90;66.70;;;;;;485029;245;1212;-47
2021/07/26 00:23:23;;;;;;;;;;;20.90;66.70;;;;;;484916;245;1183;-47
2021/07/26 00:25:24;;;;;;;;;;;20.90;66.80;;;;;;484745;245;2168;-47
2021/07/26 00:27:26;;;;;;;;;;;20.90;66.80;;;;;;484399;246;1250;-47
2021/07/26 00:29:27;;;;;;;;;;;20.90;66.70;;;;;;484374;245;1286;-47
2021/07/26 00:31:28;;;;;;;;;;;20.90;66.70;;;;;;484585;245;1339;-47
2021/07/26 00:34:04;;;;;;;;;;;20.90;66.70;;;;;;484748;245;1260;-47
2021/07/26 00:36:00;;;;;;;;;;;20.90;66.70;;;;;;483698;246;2043;-47
2021/07/26 00:38:02;;;;;;;;;;;20.90;66.80;;;;;;484885;245;1487;-47
2021/07/26 00:40:08;;;;;;;;;;;20.90;66.70;;;;;;484738;245;1165;-46
2021/07/26 00:42:05;;;;;;;;;;;20.90;66.70;;;;;;484349;246;2060;-47
2021/07/26 00:44:07;;;;;;;;;;;20.90;66.90;;;;;;484993;245;1196;-47
2021/07/26 00:46:08;;;;;;;;;;;20.90;66.80;;;;;;485086;245;2144;-47
2021/07/26 00:48:09;;;;;;;;;;;20.90;66.90;;;;;;485026;245;1222;-47
2021/07/26 00:50:11;;;;;;;;;;;20.90;66.90;;;;;;485119;245;1222;-47
2021/07/26 00:52:12;;;;;;;;;;;20.80;66.90;;;;;;484542;246;1329;-47
2021/07/26 00:54:13;;;;;;;;;;;20.90;66.90;;;;;;485041;245;1102;-46
2021/07/26 00:56:15;;;;;;;;;;;20.90;66.80;;;;;;484704;245;1320;-47
2021/07/26 00:58:16;;;;;;;;;;;20.90;66.80;;;;;;485043;245;1103;-47
2021/07/26 01:00:17;;;;;;;;;;;20.90;66.80;;;;;;484690;246;1047;-46
2021/07/26 01:02:19;;;;;;;;;;;20.90;66.80;;;;;;484625;245;1258;-46
2021/07/26 01:04:20;;;;;;;;;;;20.90;66.80;;;;;;484933;245;1123;-47
2021/07/26 01:06:21;;;;;;;;;;;20.90;66.80;;;;;;484566;246;2220;-46
2021/07/26 01:08:23;;;;;;;;;;;20.90;66.80;;;;;;484553;246;1063;-46
2021/07/26 01:10:24;;;;;;;;;;;20.90;66.80;;;;;;484983;245;1148;-47
2021/07/26 01:12:25;;;;;;;;;;;20.90;66.80;;;;;;484890;245;1235;-47
2021/07/26 01:14:27;;;;;;;;;;;20.80;66.70;;;;;;485078;245;1066;-46
2021/07/26 01:16:29;;;;;;;;;;;20.80;66.80;;;;;;484873;245;1149;-47
2021/07/26 01:18:30;;;;;;;;;;;20.90;66.90;;;;;;484718;245;2217;-46
2021/07/26 01:20:30;;;;;;;;;;;20.90;66.80;;;;;;485084;245;1056;-46
2021/07/26 01:22:32;;;;;;;;;;;20.80;66.80;;;;;;484569;245;1291;-46
2021/07/26 01:24:33;;;;;;;;;;;20.90;66.80;;;;;;485096;245;1065;-46
2021/07/26 01:26:34;;;;;;;;;;;20.90;66.90;;;;;;484519;246;2136;-47
2021/07/26 01:28:36;;;;;;;;;;;20.90;66.80;;;;;;484584;246;1224;-47
2021/07/26 01:30:37;;;;;;;;;;;20.90;66.70;;;;;;484720;245;1203;-46
2021/07/26 01:32:38;;;;;;;;;;;20.90;66.70;;;;;;484870;245;1223;-47
2021/07/26 01:34:40;;;;;;;;;;;20.90;66.70;;;;;;485097;245;1026;-47
2021/07/26 01:36:41;;;;;;;;;;;20.90;66.60;;;;;;484778;245;1195;-47
2021/07/26 01:38:45;;;;;;;;;;;20.90;66.70;;;;;;484774;245;1077;-47
2021/07/26 01:40:49;;;;;;;;;;;20.90;66.80;;;;;;484653;245;2220;-47
2021/07/26 01:42:46;;;;;;;;;;;20.90;66.90;;;;;;484284;246;2302;-47
2021/07/26 01:44:47;;;;;;;;;;;20.90;66.80;;;;;;485116;245;1044;-47
2021/07/26 01:46:48;;;;;;;;;;;20.90;66.80;;;;;;484553;246;2208;-47
2021/07/26 01:48:50;;;;;;;;;;;20.90;66.80;;;;;;485048;245;1078;-46
2021/07/26 01:50:51;;;;;;;;;;;20.90;66.80;;;;;;485084;245;1119;-47
2021/07/26 01:52:52;;;;;;;;;;;20.90;66.80;;;;;;484988;245;1054;-46
2021/07/26 01:54:54;;;;;;;;;;;20.90;66.80;;;;;;485044;245;1081;-47
2021/07/26 01:56:55;;;;;;;;;;;20.90;66.80;;;;;;484563;246;1300;-47
2021/07/26 01:58:58;;;;;;;;;;;20.90;66.80;;;;;;484997;245;1037;-47
2021/07/26 02:00:58;;;;;;;;;;;20.90;66.80;;;;;;485003;246;2246;-46
2021/07/26 02:03:00;;;;;;;;;;;20.90;66.90;;;;;;484569;245;1171;-47
2021/07/26 02:05:00;;;;;;;;;;;20.90;66.90;;;;;;484690;245;2250;-46
2021/07/26 02:07:02;;;;;;;;;;;20.90;66.90;;;;;;484980;245;2144;-47
2021/07/26 02:09:03;;;;;;;;;;;20.90;66.70;;;;;;484536;245;1097;-47
2021/07/26 02:11:04;;;;;;;;;;;20.90;66.80;;;;;;484372;246;1247;-47
2021/07/26 02:13:06;;;;;;;;;;;20.90;66.80;;;;;;484312;245;1213;-46
2021/07/26 02:15:07;;;;;;;;;;;20.80;66.90;;;;;;484422;246;1148;-47
2021/07/26 02:17:09;;;;;;;;;;;20.90;66.90;;;;;;484489;245;1126;-46
2021/07/26 02:19:10;;;;;;;;;;;20.80;66.80;;;;;;484366;246;1076;-47
2021/07/26 02:21:11;;;;;;;;;;;20.80;66.80;;;;;;484460;245;1489;-46
2021/07/26 02:23:13;;;;;;;;;;;20.90;66.80;;;;;;484353;246;1052;-46
2021/07/26 02:25:15;;;;;;;;;;;20.90;66.80;;;;;;484489;245;956;-47
2021/07/26 02:27:15;;;;;;;;;;;20.90;66.80;;;;;;484449;245;2520;-47
2021/07/26 02:29:17;;;;;;;;;;;20.90;66.70;;;;;;484451;246;1057;-47
2021/07/26 02:31:18;;;;;;;;;;;20.90;66.80;;;;;;484808;245;1253;-47
2021/07/26 02:33:19;;;;;;;;;;;20.90;66.80;;;;;;484413;245;1101;-47
2021/07/26 02:35:21;;;;;;;;;;;20.90;66.90;;;;;;484793;245;1021;-47
2021/07/26 02:37:22;;;;;;;;;;;20.90;66.90;;;;;;484454;246;1310;-46
2021/07/26 02:39:23;;;;;;;;;;;20.90;66.90;;;;;;484450;246;1048;-46
2021/07/26 02:41:24;;;;;;;;;;;20.90;66.80;;;;;;484717;245;1177;-47
2021/07/26 02:43:26;;;;;;;;;;;20.90;66.80;;;;;;484426;246;959;-47
2021/07/26 02:45:27;;;;;;;;;;;20.80;66.70;;;;;;484503;245;1150;-46
2021/07/26 02:47:29;;;;;;;;;;;20.90;66.70;;;;;;484529;245;2244;-46
2021/07/26 02:49:30;;;;;;;;;;;20.90;66.80;;;;;;484853;245;952;-47
2021/07/26 02:51:31;;;;;;;;;;;20.90;66.80;;;;;;484355;245;1345;-47
2021/07/26 02:53:32;;;;;;;;;;;20.90;66.80;;;;;;484353;246;1214;-46
2021/07/26 02:55:34;;;;;;;;;;;20.90;66.80;;;;;;484398;245;1113;-46
2021/07/26 02:57:35;;;;;;;;;;;20.90;66.80;;;;;;484453;245;1261;-47
2021/07/26 02:59:36;;;;;;;;;;;20.90;66.90;;;;;;484706;245;1112;-46
2021/07/26 03:01:38;;;;;;;;;;;20.80;66.90;;;;;;484320;243;1682;-47
2021/07/26 03:03:39;;;;;;;;;;;20.90;66.90;;;;;;484416;245;1115;-47
2021/07/26 03:05:40;;;;;;;;;;;20.90;66.80;;;;;;484735;245;2188;-46
2021/07/26 03:07:42;;;;;;;;;;;20.90;66.80;;;;;;484319;246;1185;-46
2021/07/26 03:09:43;;;;;;;;;;;20.90;66.80;;;;;;484657;245;971;-46
2021/07/26 03:11:44;;;;;;;;;;;20.80;66.80;;;;;;484482;245;1397;-47
2021/07/26 03:13:45;;;;;;;;;;;20.90;66.90;;;;;;484868;245;1080;-47
2021/07/26 03:15:47;;;;;;;;;;;20.90;66.80;;;;;;484679;245;1043;-47
2021/07/26 03:17:48;;;;;;;;;;;20.90;66.90;;;;;;484592;245;1153;-47
2021/07/26 03:19:49;;;;;;;;;;;20.80;66.80;;;;;;484419;246;1046;-47
2021/07/26 03:21:52;;;;;;;;;;;20.90;66.80;;;;;;484388;246;1149;-47
2021/07/26 03:23:53;;;;;;;;;;;20.90;66.80;;;;;;484639;245;1017;-47
2021/07/26 03:25:55;;;;;;;;;;;20.90;66.70;;;;;;484834;245;2196;-47
2021/07/26 03:27:56;;;;;;;;;;;20.90;66.70;;;;;;484448;245;1159;-47
2021/07/26 03:29:58;;;;;;;;;;;20.90;66.70;;;;;;484871;245;987;-47
2021/07/26 03:31:59;;;;;;;;;;;20.90;66.80;;;;;;484349;245;1343;-47
2021/07/26 03:34:00;;;;;;;;;;;20.90;66.90;;;;;;484865;245;1075;-47
2021/07/26 03:36:02;;;;;;;;;;;20.90;66.90;;;;;;484797;245;1157;-46
2021/07/26 03:38:03;;;;;;;;;;;20.90;66.90;;;;;;484393;245;1507;-47
2021/07/26 03:40:04;;;;;;;;;;;20.90;66.80;;;;;;484685;245;1053;-46
2021/07/26 03:42:05;;;;;;;;;;;20.90;66.80;;;;;;484258;246;1664;-47
2021/07/26 03:44:07;;;;;;;;;;;20.90;66.90;;;;;;484872;245;1030;-47
2021/07/26 03:46:08;;;;;;;;;;;20.80;66.80;;;;;;484395;245;2203;-47
2021/07/26 03:48:09;;;;;;;;;;;20.80;66.90;;;;;;484392;246;1116;-47
2021/07/26 03:50:11;;;;;;;;;;;20.90;66.90;;;;;;484437;246;1023;-47
2021/07/26 03:52:12;;;;;;;;;;;20.90;66.80;;;;;;484385;246;1436;-47
2021/07/26 03:54:13;;;;;;;;;;;20.90;66.80;;;;;;484738;245;1234;-46
2021/07/26 03:56:15;;;;;;;;;;;20.90;66.90;;;;;;484807;245;1044;-47
2021/07/26 03:58:16;;;;;;;;;;;20.90;66.90;;;;;;484477;245;1204;-47
2021/07/26 04:00:17;;;;;;;;;;;20.90;66.90;;;;;;484393;246;1094;-47
2021/07/26 04:02:19;;;;;;;;;;;20.80;66.80;;;;;;484356;242;1426;-47
2021/07/26 04:04:20;;;;;;;;;;;20.80;66.90;;;;;;484783;245;996;-47
2021/07/26 04:06:22;;;;;;;;;;;20.80;66.90;;;;;;484423;245;2141;-47
2021/07/26 04:08:25;;;;;;;;;;;20.90;67.00;;;;;;484357;246;1518;-46
2021/07/26 04:10:24;;;;;;;;;;;20.90;66.90;;;;;;484255;246;2130;-47
2021/07/26 04:12:27;;;;;;;;;;;20.80;66.80;;;;;;484595;245;1256;-47
2021/07/26 04:14:29;;;;;;;;;;;20.90;66.90;;;;;;484346;246;2227;-46
2021/07/26 04:16:28;;;;;;;;;;;20.90;66.80;;;;;;484096;246;2066;-47
2021/07/26 04:18:29;;;;;;;;;;;20.90;66.80;;;;;;484307;246;1212;-47
2021/07/26 04:20:30;;;;;;;;;;;20.90;66.80;;;;;;484657;245;1134;-46
2021/07/26 04:22:32;;;;;;;;;;;20.90;66.90;;;;;;484357;246;1185;-47
2021/07/26 04:24:33;;;;;;;;;;;20.90;66.90;;;;;;484452;245;1068;-46
2021/07/26 04:26:34;;;;;;;;;;;20.90;66.90;;;;;;484323;246;2187;-47
2021/07/26 04:28:36;;;;;;;;;;;20.90;66.80;;;;;;484500;245;1184;-46
2021/07/26 04:30:37;;;;;;;;;;;20.90;66.90;;;;;;484680;245;1271;-46
2021/07/26 04:32:39;;;;;;;;;;;20.80;66.90;;;;;;484322;246;1597;-47
2021/07/26 04:34:40;;;;;;;;;;;20.80;66.90;;;;;;484713;245;1118;-47
2021/07/26 04:36:41;;;;;;;;;;;20.80;66.90;;;;;;484294;246;1201;-47
2021/07/26 04:38:43;;;;;;;;;;;20.80;66.80;;;;;;484520;245;1080;-46
2021/07/26 04:40:44;;;;;;;;;;;20.90;67.00;;;;;;484341;245;1158;-47
2021/07/26 04:42:45;;;;;;;;;;;20.90;66.90;;;;;;484296;246;1184;-47
2021/07/26 04:44:47;;;;;;;;;;;20.80;66.90;;;;;;484802;245;1086;-47
2021/07/26 04:46:48;;;;;;;;;;;20.90;66.90;;;;;;484679;245;2200;-46
2021/07/26 04:48:49;;;;;;;;;;;20.90;66.90;;;;;;484338;246;1270;-46
2021/07/26 04:50:51;;;;;;;;;;;20.90;66.90;;;;;;484262;246;1143;-47
2021/07/26 04:52:52;;;;;;;;;;;20.90;66.80;;;;;;484316;245;1252;-46
2021/07/26 04:54:53;;;;;;;;;;;20.80;66.80;;;;;;484336;245;1047;-46
2021/07/26 04:56:55;;;;;;;;;;;20.90;66.90;;;;;;484345;245;1331;-46
2021/07/26 04:58:56;;;;;;;;;;;20.90;66.90;;;;;;484430;245;1250;-47
2021/07/26 05:00:57;;;;;;;;;;;20.90;66.80;;;;;;484296;246;1061;-46
2021/07/26 05:02:59;;;;;;;;;;;20.90;66.80;;;;;;484498;245;1183;-46
2021/07/26 05:05:01;;;;;;;;;;;20.90;66.80;;;;;;484363;245;1067;-47
2021/07/26 05:07:01;;;;;;;;;;;20.80;66.90;;;;;;484327;246;2409;-47
2021/07/26 05:09:03;;;;;;;;;;;20.80;66.90;;;;;;484360;246;1072;-47
2021/07/26 05:11:04;;;;;;;;;;;20.90;66.80;;;;;;484160;245;1165;-46
2021/07/26 05:13:05;;;;;;;;;;;20.90;66.80;;;;;;484190;245;1183;-47
2021/07/26 05:15:06;;;;;;;;;;;20.80;66.80;;;;;;484293;245;1054;-47
2021/07/26 05:17:08;;;;;;;;;;;20.90;66.80;;;;;;484275;245;1466;-47
2021/07/26 05:19:09;;;;;;;;;;;20.90;66.90;;;;;;484304;245;1071;-47
2021/07/26 05:21:10;;;;;;;;;;;20.80;66.80;;;;;;484070;246;1298;-47
2021/07/26 05:23:12;;;;;;;;;;;20.90;66.90;;;;;;484140;246;1159;-47
2021/07/26 05:25:13;;;;;;;;;;;20.80;66.80;;;;;;484196;246;1486;-47
2021/07/26 05:27:14;;;;;;;;;;;20.90;66.90;;;;;;484212;245;2183;-46
2021/07/26 05:29:16;;;;;;;;;;;20.90;66.90;;;;;;484135;246;1226;-47
2021/07/26 05:31:17;;;;;;;;;;;20.90;66.80;;;;;;484139;246;1202;-47
2021/07/26 05:33:19;;;;;;;;;;;20.90;66.80;;;;;;484473;245;1126;-47
2021/07/26 05:35:20;;;;;;;;;;;20.90;66.90;;;;;;484361;245;1088;-46
2021/07/26 05:37:21;;;;;;;;;;;20.90;66.90;;;;;;484256;245;1252;-46
2021/07/26 05:39:24;;;;;;;;;;;20.90;66.90;;;;;;484204;246;1084;-46
2021/07/26 05:41:25;;;;;;;;;;;20.90;66.90;;;;;;484327;245;1231;-47
2021/07/26 05:43:26;;;;;;;;;;;20.90;66.90;;;;;;484206;245;1532;-46
2021/07/26 05:45:27;;;;;;;;;;;20.80;66.90;;;;;;484397;245;1071;-47
2021/07/26 05:47:29;;;;;;;;;;;20.90;66.90;;;;;;484131;245;2195;-46
2021/07/26 05:49:30;;;;;;;;;;;20.90;66.90;;;;;;484112;245;1177;-47
2021/07/26 05:51:31;;;;;;;;;;;20.90;66.90;;;;;;484059;246;1394;-46
2021/07/26 05:53:33;;;;;;;;;;;20.90;66.80;;;;;;483991;245;1203;-47
2021/07/26 05:55:34;;;;;;;;;;;20.90;66.80;;;;;;484194;245;1073;-47
2021/07/26 05:57:38;;;;;;;;;;;20.90;66.90;;;;;;484448;245;1206;-47
2021/07/26 05:59:37;;;;;;;;;;;20.90;66.80;;;;;;484038;246;2217;-47
2021/07/26 06:01:48;;;;;;;;;;;20.90;66.80;;;;;;484150;245;1711;-47
2021/07/26 06:03:50;;;;;;;;;;;20.90;66.70;;;;;;484042;245;1068;-47
2021/07/26 06:05:51;;;;;;;;;;;20.90;66.70;;;;;;483976;245;1333;-46
2021/07/26 06:07:52;;;;;;;;;;;20.90;66.70;;;;;;483771;245;2194;-47
2021/07/26 06:09:53;;;;;;;;;;;20.90;66.70;;;;;;484093;245;1274;-46
2021/07/26 06:11:55;;;;;;;;;;;20.90;66.80;;;;;;483840;246;1232;-47
2021/07/26 06:13:56;;;;;;;;;;;20.90;66.70;;;;;;483885;245;1146;-46
2021/07/26 06:15:57;;;;;;;;;;;20.90;66.70;;;;;;484164;245;1327;-47
2021/07/26 06:17:59;;;;;;;;;;;20.90;66.70;;;;;;484077;245;1377;-47
2021/07/26 06:20:00;;;;;;;;;;;20.90;66.60;;;;;;483996;246;1128;-47
2021/07/26 06:22:01;;;;;;;;;;;20.90;66.70;;;;;;484002;245;1201;-47
2021/07/26 06:24:03;;;;;;;;;;;20.90;66.70;;;;;;484028;246;1125;-46
2021/07/26 06:26:05;;;;;;;;;;;20.90;66.70;;;;;;483956;246;1185;-47
2021/07/26 06:28:06;;;;;;;;;;;20.90;66.70;;;;;;484029;246;2188;-47
2021/07/26 06:30:07;;;;;;;;;;;20.90;66.70;;;;;;483849;245;1202;-47
2021/07/26 06:32:09;;;;;;;;;;;20.90;66.70;;;;;;483958;245;1324;-46
2021/07/26 06:34:10;;;;;;;;;;;20.90;66.80;;;;;;483984;245;1225;-47
2021/07/26 06:36:11;;;;;;;;;;;20.90;66.70;;;;;;483876;245;1392;-46
2021/07/26 06:38:14;;;;;;;;;;;20.90;66.70;;;;;;483739;246;1217;-47
2021/07/26 06:40:15;;;;;;;;;;;20.90;66.70;;;;;;483650;246;2271;-47
2021/07/26 06:42:17;;;;;;;;;;;20.90;66.70;;;;;;484034;246;2009;-46
2021/07/26 06:44:17;;;;;;;;;;;20.90;66.70;;;;;;484080;245;2171;-46
2021/07/26 06:46:18;;;;;;;;;;;20.90;66.70;;;;;;484021;245;1240;-46
2021/07/26 06:48:21;;;;;;;;;;;20.90;66.70;;;;;;483837;246;2203;-47
2021/07/26 06:50:20;;;;;;;;;;;20.90;66.60;;;;;;483833;246;2097;-47
2021/07/26 06:52:22;;;;;;;;;;;20.90;66.70;;;;;;483751;246;1281;-46
2021/07/26 06:54:24;;;;;;;;;;;20.90;66.60;;;;;;483820;246;1150;-47
2021/07/26 06:56:25;;;;;;;;;;;20.90;66.70;;;;;;484077;245;1141;-46
2021/07/26 06:58:26;;;;;;;;;;;20.90;66.80;;;;;;483814;245;1224;-47
2021/07/26 07:00:27;;;;;;;;;;;20.90;66.60;;;;;;483836;245;1227;-46
2021/07/26 07:02:28;;;;;;;;;;;20.90;66.60;;;;;;483716;246;1350;-47
2021/07/26 07:04:30;;;;;;;;;;;20.90;66.70;;;;;;483713;245;1194;-47
2021/07/26 07:06:31;;;;;;;;;;;20.90;66.70;;;;;;483804;246;1210;-46
2021/07/26 07:08:32;;;;;;;;;;;20.90;66.70;;;;;;483695;246;2195;-46
2021/07/26 07:10:34;;;;;;;;;;;20.90;66.70;;;;;;483739;245;1253;-47
2021/07/26 07:12:35;;;;;;;;;;;20.90;66.60;;;;;;483683;245;1444;-47
2021/07/26 07:14:36;;;;;;;;;;;20.90;66.70;;;;;;483709;246;1251;-47
2021/07/26 07:16:38;;;;;;;;;;;20.90;66.60;;;;;;483636;245;1231;-47
2021/07/26 07:18:39;;;;;;;;;;;20.90;66.60;;;;;;483610;246;1241;-47
2021/07/26 07:20:41;;;;;;;;;;;20.90;66.50;;;;;;483793;245;1256;-47
2021/07/26 07:22:42;;;;;;;;;;;21.00;66.60;;;;;;483712;246;1555;-46
2021/07/26 07:24:43;;;;;;;;;;;20.90;66.50;;;;;;483817;245;1138;-47
2021/07/26 07:26:45;;;;;;;;;;;20.90;66.60;;;;;;484012;245;1220;-47
2021/07/26 07:28:46;;;;;;;;;;;20.90;66.50;;;;;;483685;245;2189;-47
2021/07/26 07:30:47;;;;;;;;;;;20.90;66.50;;;;;;483640;245;1233;-47
2021/07/26 07:32:48;;;;;;;;;;;21.00;66.50;;;;;;484359;245;1278;-47
2021/07/26 07:34:50;;;;;;;;;;;20.90;66.60;;;;;;484234;245;1082;-46
2021/07/26 07:36:51;;;;;;;;;;;21.00;66.60;;;;;;483562;246;1308;-47
2021/07/26 07:38:52;;;;;;;;;;;21.00;66.60;;;;;;483678;245;1158;-47
2021/07/26 07:40:54;;;;;;;;;;;20.90;66.40;;;;;;483490;246;1418;-47
2021/07/26 07:42:55;;;;;;;;;;;20.90;66.50;;;;;;483319;246;1318;-47
2021/07/26 07:44:56;;;;;;;;;;;20.90;66.60;;;;;;483529;245;1138;-46
2021/07/26 07:46:58;;;;;;;;;;;21.00;66.50;;;;;;483752;246;1198;-46
2021/07/26 07:48:59;;;;;;;;;;;20.90;66.50;;;;;;483689;245;2183;-47
2021/07/26 07:51:01;;;;;;;;;;;21.00;66.40;;;;;;483653;245;1331;-47
2021/07/26 07:53:03;;;;;;;;;;;21.00;66.40;;;;;;483901;246;1255;-47
2021/07/26 07:55:03;;;;;;;;;;;21.00;66.40;;;;;;483972;246;2315;-47
2021/07/26 07:57:05;;;;;;;;;;;21.00;66.30;;;;;;484291;245;1211;-47
2021/07/26 07:59:07;;;;;;;;;;;21.10;66.30;;;;;;484255;245;1061;-47
2021/07/26 08:01:07;;;;;;;;;;;21.10;66.30;;;;;;483947;246;2138;-47
2021/07/26 08:03:09;;;;;;;;;;;21.00;66.30;;;;;;483921;246;1116;-47
2021/07/26 08:05:10;;;;;;;;;;;21.10;66.30;;;;;;484422;245;834;-47
2021/07/26 08:07:11;;;;;;;;;;;21.10;66.20;;;;;;483793;246;1209;-47
2021/07/26 08:09:13;;;;;;;;;;;21.10;66.20;;;;;;483898;246;2176;-47
2021/07/26 08:11:14;;;;;;;;;;;21.10;66.30;;;;;;484319;245;1266;-47
2021/07/26 08:13:15;;;;;;;;;;;21.10;66.20;;;;;;484414;245;1236;-47
2021/07/26 08:15:17;;;;;;;;;;;21.10;66.20;;;;;;483474;246;1215;-47
2021/07/26 08:17:18;;;;;;;;;;;21.10;66.10;;;;;;483846;245;2124;-47
2021/07/26 08:19:19;;;;;;;;;;;21.10;66.10;;;;;;483874;246;1186;-46
2021/07/26 08:21:21;;;;;;;;;;;21.20;66.00;;;;;;483732;245;1336;-47
2021/07/26 08:23:22;;;;;;;;;;;21.10;65.90;;;;;;484450;245;1123;-47
2021/07/26 08:25:23;;;;;;;;;;;21.20;65.90;;;;;;484538;245;865;-47
2021/07/26 08:27:25;;;;;;;;;;;21.20;65.90;;;;;;484427;245;1057;-47
2021/07/26 08:29:26;;;;;;;;;;;21.20;65.90;;;;;;484426;245;2180;-47
2021/07/26 08:31:27;;;;;;;;;;;21.20;65.90;;;;;;483979;245;1218;-47
2021/07/26 08:33:28;;;;;;;;;;;21.20;66.00;;;;;;483677;245;1178;-47
2021/07/26 08:35:30;;;;;;;;;;;21.20;65.90;;;;;;483439;245;1119;-47
2021/07/26 08:37:31;;;;;;;;;;;21.20;65.90;;;;;;483458;245;1633;-47
2021/07/26 08:39:34;;;;;;;;;;;21.20;65.90;;;;;;483411;246;1109;-47
2021/07/26 08:41:34;;;;;;;;;;;21.20;65.90;;;;;;484371;245;2143;-47
2021/07/26 08:43:35;;;;;;;;;;;21.20;65.90;;;;;;483913;246;1209;-47
2021/07/26 08:45:37;;;;;;;;;;;21.20;65.90;;;;;;483948;246;1164;-47
2021/07/26 08:47:38;;;;;;;;;;;21.20;65.80;;;;;;484249;245;1089;-47
2021/07/26 08:49:39;;;;;;;;;;;21.20;65.90;;;;;;484291;245;2256;-46
2021/07/26 08:51:42;;;;;;;;;;;21.20;65.90;;;;;;483919;246;1168;-47
2021/07/26 08:53:43;;;;;;;;;;;21.20;65.90;;;;;;484222;245;1131;-47
2021/07/26 08:55:44;;;;;;;;;;;21.20;65.90;;;;;;483430;246;1242;-46
2021/07/26 08:57:46;;;;;;;;;;;21.20;65.80;;;;;;483263;246;1255;-47
2021/07/26 08:59:47;;;;;;;;;;;21.20;65.80;;;;;;483590;245;1133;-47
2021/07/26 09:01:48;;;;;;;;;;;21.20;65.80;;;;;;483760;246;1380;-46
2021/07/26 09:03:50;;;;;;;;;;;21.30;65.70;;;;;;483846;246;1083;-47
2021/07/26 09:05:51;;;;;;;;;;;21.30;65.70;;;;;;483528;245;1320;-47
2021/07/26 09:07:52;;;;;;;;;;;21.30;65.70;;;;;;483776;246;2179;-47
2021/07/26 09:09:54;;;;;;;;;;;21.30;65.70;;;;;;484363;245;834;-47
2021/07/26 09:11:55;;;;;;;;;;;21.30;65.70;;;;;;484106;245;1277;-47
2021/07/26 09:13:56;;;;;;;;;;;21.30;65.70;;;;;;483721;246;1388;-46
2021/07/26 09:15:57;;;;;;;;;;;21.30;65.80;;;;;;483715;245;1508;-47
2021/07/26 09:17:59;;;;;;;;;;;21.30;65.70;;;;;;483993;245;1217;-47
2021/07/26 09:20:01;;;;;;;;;;;21.30;65.80;;;;;;483539;246;1224;-46
2021/07/26 09:22:01;;;;;;;;;;;21.30;65.80;;;;;;483669;246;1341;-47
2021/07/26 09:24:03;;;;;;;;;;;21.30;65.70;;;;;;484398;245;1059;-47
2021/07/26 09:26:05;;;;;;;;;;;21.30;65.70;;;;;;484156;245;1221;-47
2021/07/26 09:28:06;;;;;;;;;;;21.30;65.60;;;;;;484336;245;2192;-46
2021/07/26 09:30:07;;;;;;;;;;;21.30;65.70;;;;;;484397;245;857;-47
2021/07/26 09:32:08;;;;;;;;;;;21.30;65.70;;;;;;483827;246;1122;-47
2021/07/26 09:34:10;;;;;;;;;;;21.30;65.70;;;;;;484312;245;965;-47
2021/07/26 09:36:12;;;;;;;;;;;21.30;65.70;;;;;;484243;245;1742;-47
2021/07/26 09:38:16;;;;;;;;;;;21.30;65.70;;;;;;483663;246;1145;-47
2021/07/26 09:40:15;;;;;;;;;;;21.30;65.70;;;;;;483321;246;1831;-47
2021/07/26 09:42:16;;;;;;;;;;;21.30;65.80;;;;;;483416;245;1279;-47
2021/07/26 09:44:17;;;;;;;;;;;21.20;65.80;;;;;;483227;245;1213;-47
2021/07/26 09:46:19;;;;;;;;;;;21.30;65.80;;;;;;483505;245;1397;-47
2021/07/26 09:48:20;;;;;;;;;;;21.30;65.80;;;;;;483392;246;2128;-46
2021/07/26 09:50:21;;;;;;;;;;;21.30;65.90;;;;;;483511;246;1083;-47
2021/07/26 09:52:23;;;;;;;;;;;21.30;65.80;;;;;;483607;246;1299;-46
2021/07/26 09:54:24;;;;;;;;;;;21.20;65.70;;;;;;484184;245;1245;-46
2021/07/26 09:56:25;;;;;;;;;;;21.30;65.80;;;;;;484014;245;1350;-47
2021/07/26 09:58:27;;;;;;;;;;;21.30;65.80;;;;;;484449;245;1119;-47
2021/07/26 10:00:28;;;;;;;;;;;21.30;65.80;;;;;;484530;245;863;-47
2021/07/26 10:02:33;;;;;;;;;;;21.30;66.00;;;;;;483848;246;1187;-47
2021/07/26 10:04:31;;;;;;;;;;;21.20;65.80;;;;;;483156;246;2142;-47
2021/07/26 10:06:32;;;;;;;;;;;21.20;66.00;;;;;;483404;245;1283;-47
2021/07/26 10:08:33;;;;;;;;;;;21.20;65.90;;;;;;483327;246;2183;-47
2021/07/26 10:10:35;;;;;;;;;;;21.30;65.90;;;;;;483521;245;1205;-47
2021/07/26 10:12:37;;;;;;;;;;;21.30;65.80;;;;;;483534;246;1233;-46
2021/07/26 10:14:37;;;;;;;;;;;21.30;65.80;;;;;;483509;246;2027;-47
2021/07/26 10:16:39;;;;;;;;;;;21.30;65.80;;;;;;483570;246;1278;-47
2021/07/26 10:18:40;;;;;;;;;;;21.30;65.80;;;;;;483543;245;1134;-47
2021/07/26 10:20:41;;;;;;;;;;;21.30;65.70;;;;;;483537;245;1496;-47
2021/07/26 10:22:43;;;;;;;;;;;21.30;65.70;;;;;;483669;246;1240;-47
2021/07/26 10:24:44;;;;;;;;;;;21.30;65.70;;;;;;483738;245;1208;-47
2021/07/26 10:26:45;;;;;;;;;;;21.30;65.70;;;;;;483661;245;1738;-47
2021/07/26 10:28:47;;;;;;;;;;;21.30;65.70;;;;;;484012;246;2183;-47
2021/07/26 10:30:48;;;;;;;;;;;21.30;65.80;;;;;;484481;245;918;-47
2021/07/26 10:32:49;;;;;;;;;;;21.30;65.70;;;;;;484058;245;1164;-47
2021/07/26 10:34:51;;;;;;;;;;;21.30;65.70;;;;;;484064;246;989;-47
2021/07/26 10:36:59;;;;;;;;;;;21.30;65.70;;;;;;483853;246;1219;-47
2021/07/26 10:38:59;;;;;;;;;;;21.30;65.80;;;;;;483763;246;2089;-46
2021/07/26 10:41:01;;;;;;;;;;;21.30;65.80;;;;;;483607;246;1314;-47
2021/07/26 10:43:03;;;;;;;;;;;21.30;65.80;;;;;;484433;245;1029;-46
2021/07/26 10:45:03;;;;;;;;;;;21.30;65.70;;;;;;484178;246;974;-47
2021/07/26 10:47:06;;;;;;;;;;;21.30;65.70;;;;;;484423;245;1157;-47
2021/07/26 10:49:06;;;;;;;;;;;21.30;65.70;;;;;;484066;246;2184;-46
2021/07/26 10:51:07;;;;;;;;;;;21.30;65.70;;;;;;483740;246;1352;-47
2021/07/26 10:53:09;;;;;;;;;;;21.30;65.70;;;;;;484569;245;1272;-47
2021/07/26 10:55:10;;;;;;;;;;;21.30;65.80;;;;;;484473;245;1074;-47
2021/07/26 10:57:13;;;;;;;;;;;21.30;65.90;;;;;;484597;245;1131;-47
2021/07/26 10:59:14;;;;;;;;;;;21.20;65.90;;;;;;483990;245;1351;-47
2021/07/26 11:01:15;;;;;;;;;;;21.20;66.00;;;;;;483757;245;1283;-47
2021/07/26 11:03:16;;;;;;;;;;;21.20;66.10;;;;;;484168;245;1202;-47
2021/07/26 11:05:18;;;;;;;;;;;21.20;66.20;;;;;;483919;246;1098;-47
2021/07/26 11:07:19;;;;;;;;;;;21.20;66.10;;;;;;483900;246;1268;-47
2021/07/26 11:09:20;;;;;;;;;;;21.20;66.20;;;;;;484617;246;2187;-47
2021/07/26 11:11:22;;;;;;;;;;;21.20;66.30;;;;;;483947;245;1265;-47
2021/07/26 11:13:23;;;;;;;;;;;21.20;66.20;;;;;;483685;245;1166;-47
2021/07/26 11:15:24;;;;;;;;;;;21.20;66.30;;;;;;483701;245;1166;-47
2021/07/26 11:17:26;;;;;;;;;;;21.20;66.20;;;;;;483676;245;1169;-47
2021/07/26 11:19:27;;;;;;;;;;;21.20;66.30;;;;;;483743;245;1092;-47
2021/07/26 11:21:28;;;;;;;;;;;21.20;66.30;;;;;;483545;245;1217;-47
2021/07/26 11:23:29;;;;;;;;;;;21.20;66.30;;;;;;483623;245;1511;-47
2021/07/26 11:25:31;;;;;;;;;;;21.20;66.30;;;;;;483484;245;1121;-47
2021/07/26 11:27:32;;;;;;;;;;;21.20;66.30;;;;;;483476;245;1380;-47
2021/07/26 11:29:34;;;;;;;;;;;21.20;66.30;;;;;;483825;245;2191;-47
2021/07/26 11:31:35;;;;;;;;;;;21.10;66.30;;;;;;483486;245;1342;-47
2021/07/26 11:33:36;;;;;;;;;;;21.20;66.30;;;;;;483481;245;1355;-47
2021/07/26 11:35:37;;;;;;;;;;;21.20;66.30;;;;;;483688;245;1305;-47
2021/07/26 11:37:39;;;;;;;;;;;21.20;66.30;;;;;;484031;245;1351;-47
2021/07/26 11:39:40;;;;;;;;;;;21.20;66.30;;;;;;484069;245;1024;-47
2021/07/26 11:41:41;;;;;;;;;;;21.20;66.30;;;;;;484084;245;1187;-47
2021/07/26 11:43:44;;;;;;;;;;;21.20;66.30;;;;;;484576;245;1100;-47
2021/07/26 11:45:47;;;;;;;;;;;21.20;66.10;;;;;;484041;246;2366;-47
2021/07/26 11:47:48;;;;;;;;;;;21.20;66.20;;;;;;484037;246;2099;-47
2021/07/26 11:49:47;;;;;;;;;;;21.20;66.30;;;;;;484326;246;2191;-47
2021/07/26 11:51:49;;;;;;;;;;;21.20;66.40;;;;;;484375;245;1769;-47
2021/07/26 11:53:50;;;;;;;;;;;21.20;66.40;;;;;;484060;245;2105;-47
2021/07/26 11:55:51;;;;;;;;;;;21.20;66.40;;;;;;484044;245;1380;-47
2021/07/26 11:57:52;;;;;;;;;;;21.20;66.30;;;;;;483657;245;1304;-47